createdAt,value
2023-02-04T00:00:40.190Z,102379.91
2023-02-04T00:03:08.500Z,102386.22
2023-02-04T00:05:36.949Z,102389.03
2023-02-04T00:08:06.773Z,102385.66
2023-02-04T00:10:37.504Z,102391.06
2023-02-04T00:13:05.387Z,102392.97
2023-02-04T00:15:33.760Z,102394.03
2023-02-04T00:18:01.753Z,102398.59
2023-02-04T00:20:32.071Z,102391.75
2023-02-04T00:23:00.377Z,102392.81
2023-02-04T00:25:28.547Z,102402.63
2023-02-04T00:27:57.892Z,102405.47
2023-02-04T00:30:26.152Z,102406.53
2023-02-04T00:32:54.930Z,102401.34
2023-02-04T00:35:22.952Z,102401.59
2023-02-04T00:37:50.858Z,102415.72
2023-02-04T00:40:19.535Z,102422.09
2023-02-04T00:42:47.223Z,102428.31
2023-02-04T00:45:16.162Z,102443.44
2023-02-04T00:47:43.833Z,102449.69
2023-02-04T00:50:12.230Z,102450.72
2023-02-04T00:52:40.168Z,102451.72
2023-02-04T00:55:10.325Z,102449.19
2023-02-04T00:57:38.190Z,102449.19
2023-02-04T01:00:08.560Z,102443.19
2023-02-04T01:02:37.603Z,102444.22
2023-02-04T01:05:05.955Z,102441.72
2023-02-04T01:07:34.810Z,102456.72
2023-02-04T01:10:02.578Z,102458.63
2023-02-04T01:12:32.761Z,102455.16
2023-02-04T01:15:00.604Z,102459.59
2023-02-04T01:17:28.352Z,102464.09
2023-02-04T01:19:57.671Z,102471.22
2023-02-04T01:22:29.227Z,102467.75
2023-02-04T01:24:57.024Z,102467.75
2023-02-04T01:27:43.783Z,102467.75
2023-02-04T01:30:13.462Z,102463.47
2023-02-04T01:32:44.827Z,102487.22
2023-02-04T01:35:14.843Z,102488.97
2023-02-04T01:37:42.453Z,102502.19
2023-02-04T01:40:12.276Z,102487.22
2023-02-04T01:43:04.673Z,102492.41
2023-02-04T01:45:35.868Z,102491.38
2023-02-04T01:48:06.844Z,102496.59
2023-02-04T01:50:37.555Z,102499.00
2023-02-04T01:53:05.502Z,102503.44
2023-02-04T01:55:34.753Z,102506.00
2023-02-04T01:58:03.752Z,102511.16
2023-02-04T02:00:33.652Z,102523.38
2023-02-04T02:03:03.786Z,102525.91
2023-02-04T02:05:37.941Z,102519.66
2023-02-04T02:08:09.258Z,102515.13
2023-02-04T02:10:45.402Z,102526.41
2023-02-04T02:13:16.897Z,102529.03
2023-02-04T02:15:49.325Z,102526.22
2023-02-04T02:18:17.868Z,102527.91
2023-02-04T02:20:46.409Z,102535.75
2023-02-04T02:23:29.763Z,102550.59
2023-02-04T02:26:00.540Z,102541.72
2023-02-04T02:28:28.763Z,102539.03
2023-02-04T02:30:56.804Z,102547.72
2023-02-04T02:33:26.781Z,102545.84
2023-02-04T03:33:55.952Z,102557.91
2023-02-04T03:39:13.748Z,102568.38
2023-02-04T03:44:33.396Z,102566.53
2023-02-04T03:47:01.015Z,102570.81
2023-02-04T03:49:32.189Z,102576.97
2023-02-04T03:51:59.850Z,102572.53
2023-02-04T03:54:31.301Z,102576.97
2023-02-04T03:56:59.447Z,102593.69
2023-02-04T03:59:28.049Z,102598.97
2023-02-04T04:01:56.831Z,102603.38
2023-02-04T04:04:24.608Z,102598.03
2023-02-04T04:06:53.828Z,102598.00
2023-02-04T04:09:21.829Z,102608.50
2023-02-04T04:11:49.584Z,102608.41
2023-02-04T04:14:17.874Z,102612.91
2023-02-04T04:16:47.155Z,102619.06
2023-02-04T04:19:14.772Z,102623.50
2023-02-04T04:21:43.846Z,102618.31
2023-02-04T04:24:12.820Z,102620.09
2023-02-04T04:26:43.861Z,102615.75
2023-02-04T04:32:10.776Z,102623.72
2023-02-04T04:34:39.887Z,102629.09
2023-02-04T04:37:07.535Z,102636.13
2023-02-04T04:39:36.661Z,102642.31
2023-02-04T04:42:06.759Z,102655.53
2023-02-04T04:44:34.425Z,102644.09
2023-02-04T04:47:03.133Z,102644.97
2023-02-04T04:49:32.308Z,102660.81
2023-02-04T04:51:59.961Z,102660.81
2023-02-04T04:54:28.141Z,102671.38
2023-02-04T04:56:57.113Z,102663.47
2023-02-04T04:59:24.729Z,102659.88
2023-02-04T05:01:52.848Z,102669.56
2023-02-04T05:04:21.315Z,102671.34
2023-02-04T05:06:49.738Z,102673.06
2023-02-04T05:09:21.777Z,102673.00
2023-02-04T05:11:49.246Z,102679.19
2023-02-04T05:14:18.463Z,102682.78
2023-02-04T05:16:46.762Z,102685.34
2023-02-04T05:19:14.308Z,102691.50
2023-02-04T05:21:42.225Z,102692.34
2023-02-04T05:24:09.878Z,102698.41
2023-02-04T05:26:38.155Z,102700.16
2023-02-04T05:29:06.690Z,102702.75
2023-02-04T05:31:36.590Z,102706.25
2023-02-04T05:34:04.307Z,102708.88
2023-02-04T05:36:32.071Z,102717.59
2023-02-04T05:38:59.681Z,102720.31
2023-02-04T05:41:27.231Z,102709.75
2023-02-04T05:43:56.034Z,102720.31
2023-02-04T05:46:23.755Z,102717.59
2023-02-04T05:49:22.256Z,102723.81
2023-02-04T05:51:50.241Z,102723.81
2023-02-04T05:54:20.482Z,102723.81
2023-02-04T05:56:48.403Z,102736.16
2023-02-04T05:59:17.754Z,102729.16
2023-02-04T06:01:47.805Z,102732.72
2023-02-04T06:04:16.513Z,102738.00
2023-02-04T06:06:45.774Z,102748.59
2023-02-04T06:09:15.738Z,102745.09
2023-02-04T06:11:44.879Z,102760.94
2023-02-04T06:14:13.764Z,102745.97
2023-02-04T06:16:41.889Z,102753.91
2023-02-04T06:19:09.600Z,102765.41
2023-02-04T06:21:37.180Z,102758.31
2023-02-04T06:24:07.458Z,102760.97
2023-02-04T06:26:35.141Z,102763.69
2023-02-04T06:29:27.555Z,102773.38
2023-02-04T06:31:55.900Z,102768.16
2023-02-04T06:34:24.126Z,102773.44
2023-02-04T06:36:58.924Z,102771.72
2023-02-04T06:39:29.782Z,102773.47
2023-02-04T06:41:58.682Z,102769.97
2023-02-04T06:44:26.245Z,102772.63
2023-02-04T06:46:54.036Z,102781.47
2023-02-04T06:49:21.657Z,102783.28
2023-02-04T06:51:50.423Z,102792.13
2023-02-04T06:54:19.737Z,102793.06
2023-02-04T06:56:49.891Z,102805.38
2023-02-04T06:59:19.762Z,102802.78
2023-02-04T07:01:47.870Z,102816.13
2023-02-04T07:04:15.758Z,102818.78
2023-02-04T07:07:09.092Z,102828.56
2023-02-04T07:09:40.468Z,102820.69
2023-02-04T07:12:09.820Z,102820.78
2023-02-04T07:14:37.427Z,102815.56
2023-02-04T07:17:05.120Z,102816.50
2023-02-04T07:19:33.858Z,102813.91
2023-02-04T07:22:04.825Z,102816.56
2023-02-04T07:24:32.472Z,102818.44
2023-02-04T07:27:02.535Z,102829.09
2023-02-04T07:29:31.763Z,102831.84
2023-02-04T07:31:59.952Z,102835.47
2023-02-04T07:34:27.785Z,102835.47
2023-02-04T07:36:56.284Z,102841.69
2023-02-04T07:39:25.732Z,102842.56
2023-02-04T07:41:55.756Z,102842.56
2023-02-04T07:44:34.815Z,102837.28
2023-02-04T07:47:03.225Z,102842.56
2023-02-04T07:49:34.820Z,102848.69
2023-02-04T07:52:04.449Z,102840.78
2023-02-04T07:54:33.831Z,102852.19
2023-02-04T07:57:05.739Z,102850.41
2023-02-04T07:59:35.752Z,102858.31
2023-02-04T08:02:03.311Z,102862.66
2023-02-04T08:04:32.437Z,102861.66
2023-02-04T08:07:00.813Z,102865.09
2023-02-04T08:09:28.835Z,102868.53
2023-02-04T08:12:00.722Z,102875.53
2023-02-04T08:14:29.760Z,102879.94
2023-02-04T08:17:01.539Z,102886.06
2023-02-04T08:19:29.726Z,102888.66
2023-02-04T08:21:57.285Z,102894.84
2023-02-04T08:24:24.987Z,102896.59
2023-02-04T08:26:52.625Z,102887.75
2023-02-04T08:29:20.627Z,102899.09
2023-02-04T08:31:48.624Z,102907.78
2023-02-04T08:34:43.937Z,102904.19
2023-02-04T08:37:11.849Z,102910.28
2023-02-04T08:39:46.137Z,102912.81
2023-02-04T08:42:40.744Z,102925.06
2023-02-04T08:45:10.796Z,102919.84
2023-02-04T08:47:38.444Z,102928.66
2023-02-04T08:50:09.817Z,102937.44
2023-02-04T08:52:38.167Z,102941.22
2023-02-04T08:55:30.640Z,102943.91
2023-02-04T08:57:59.032Z,102945.63
2023-02-04T09:00:26.668Z,102952.75
2023-02-04T09:05:47.735Z,102951.84
2023-02-04T09:08:15.710Z,102955.47
2023-02-04T09:11:10.597Z,102965.19
2023-02-04T09:13:38.208Z,102955.47
2023-02-04T09:16:07.621Z,102959.84
2023-02-04T09:18:35.313Z,102964.31
2023-02-04T09:21:04.448Z,102958.91
2023-02-04T09:23:32.838Z,102953.47
2023-02-04T09:26:01.282Z,102960.41
2023-02-04T09:28:28.946Z,102954.28
2023-02-04T09:30:56.776Z,102962.97
2023-02-04T09:33:24.874Z,102970.91
2023-02-04T09:35:52.591Z,102965.56
2023-02-04T09:38:22.147Z,102970.66
2023-02-04T09:40:54.541Z,102959.97
2023-02-04T09:43:26.107Z,102965.97
2023-02-04T09:45:54.589Z,102969.53
2023-02-04T09:48:26.807Z,102969.44
2023-02-04T09:51:04.657Z,102960.53
2023-02-04T09:53:37.286Z,102971.97
2023-02-04T09:56:05.843Z,102977.16
2023-02-04T09:58:36.285Z,102984.81
2023-02-04T10:01:12.096Z,102986.38
2023-02-04T10:03:46.400Z,102988.97
2023-02-04T10:06:15.674Z,102998.31
2023-02-04T10:08:47.444Z,102993.53
2023-02-04T10:11:16.292Z,102996.97
2023-02-04T10:13:47.709Z,102991.28
2023-02-04T10:16:18.087Z,102991.22
2023-02-04T10:18:46.741Z,102996.31
2023-02-04T10:21:20.761Z,102995.91
2023-02-04T10:23:55.141Z,102996.78
2023-02-04T10:26:29.250Z,102992.94
2023-02-04T10:29:01.416Z,102993.56
2023-02-04T10:34:35.453Z,102999.97
2023-02-04T10:37:13.622Z,102995.56
2023-02-04T10:39:45.019Z,102998.00
2023-02-04T10:42:20.821Z,102996.16
2023-02-04T10:44:48.655Z,102999.81
2023-02-04T10:47:20.177Z,102999.97
2023-02-04T10:50:02.818Z,103005.34
2023-02-04T10:52:36.185Z,103012.56
2023-02-04T10:55:07.276Z,103020.31
2023-02-04T10:57:39.781Z,103014.97
2023-02-04T11:00:17.111Z,103020.94
2023-02-04T11:02:49.181Z,103014.69
2023-02-04T11:05:19.879Z,103017.19
2023-02-04T11:07:49.354Z,103008.47
2023-02-04T11:10:21.781Z,103007.47
2023-02-04T11:13:02.196Z,103017.81
2023-02-04T11:15:49.812Z,103014.50
2023-02-04T11:18:30.946Z,103025.03
2023-02-04T11:21:00.523Z,103016.97
2023-02-04T11:23:37.232Z,103011.66
2023-02-04T11:26:10.510Z,103011.66
2023-02-04T11:28:58.073Z,103016.91
2023-02-04T11:31:41.271Z,103023.81
2023-02-04T11:34:14.331Z,103017.59
2023-02-04T11:36:57.775Z,103021.13
2023-02-04T11:39:30.364Z,103021.13
2023-02-04T11:42:01.844Z,103027.28
2023-02-04T11:44:30.677Z,103022.00
2023-02-04T11:47:02.661Z,103023.81
2023-02-04T11:49:31.448Z,103024.63
2023-02-04T11:52:08.657Z,103022.66
2023-02-04T11:54:37.045Z,103008.53
2023-02-04T11:57:07.134Z,103013.84
2023-02-04T11:59:35.760Z,103012.81
2023-02-04T12:02:16.987Z,103011.16
2023-02-04T12:04:53.774Z,103012.81
2023-02-04T12:07:28.664Z,103023.38
2023-02-04T12:09:57.782Z,103022.44
2023-02-04T12:12:30.844Z,103023.06
2023-02-04T12:15:04.804Z,103031.09
2023-02-04T12:17:32.443Z,103031.34
2023-02-04T12:20:00.067Z,103035.72
2023-02-04T12:22:28.848Z,103036.63
2023-02-04T12:24:56.440Z,103040.13
2023-02-04T12:27:24.165Z,103037.41
2023-02-04T12:29:56.680Z,103033.75
2023-02-04T12:32:24.566Z,103038.13
2023-02-04T12:34:53.772Z,103044.25
2023-02-04T12:37:22.772Z,103044.09
2023-02-04T12:39:51.831Z,103042.31
2023-02-04T12:42:20.775Z,103045.78
2023-02-04T12:44:49.391Z,103045.78
2023-02-04T12:47:18.342Z,103046.56
2023-02-04T12:49:48.774Z,103044.03
2023-02-04T12:52:18.291Z,103051.00
2023-02-04T12:54:46.789Z,103050.94
2023-02-04T12:57:19.497Z,103049.22
2023-02-04T12:59:47.409Z,103051.88
2023-02-04T13:02:15.037Z,103049.97
2023-02-04T13:04:44.753Z,103049.97
2023-02-04T13:07:17.789Z,103048.19
2023-02-04T13:09:45.984Z,103048.91
2023-02-04T13:12:15.757Z,103048.38
2023-02-04T13:14:45.001Z,103045.16
2023-02-04T13:17:12.812Z,103037.38
2023-02-04T13:19:40.848Z,103040.03
2023-02-04T13:22:10.008Z,103036.47
2023-02-04T13:24:37.849Z,103035.72
2023-02-04T13:27:05.589Z,103027.81
2023-02-04T13:29:33.776Z,103029.53
2023-02-04T13:32:02.848Z,103042.78
2023-02-04T13:34:34.186Z,103035.78
2023-02-04T13:37:01.814Z,103027.91
2023-02-04T13:39:33.767Z,103024.41
2023-02-04T13:42:05.854Z,103028.81
2023-02-04T13:44:34.078Z,103031.47
2023-02-04T13:47:01.932Z,103034.13
2023-02-04T13:49:33.779Z,103032.13
2023-02-04T13:52:01.433Z,103034.78
2023-02-04T13:54:28.974Z,103030.38
2023-02-04T13:56:58.779Z,103026.84
2023-02-04T13:59:27.855Z,103027.53
2023-02-04T14:01:57.444Z,103020.50
2023-02-04T14:04:26.953Z,103018.03
2023-02-04T14:06:56.358Z,103028.63
2023-02-04T14:09:26.782Z,103028.50
2023-02-04T14:11:54.455Z,103020.44
2023-02-04T14:14:23.416Z,103030.00
2023-02-04T14:16:51.831Z,103030.31
2023-02-04T14:19:27.784Z,103029.53
2023-02-04T14:21:55.858Z,103033.06
2023-02-04T14:24:23.419Z,103027.75
2023-02-04T14:26:52.851Z,103032.03
2023-02-04T14:29:20.753Z,103026.91
2023-02-04T14:31:50.012Z,103035.72
2023-02-04T14:34:17.622Z,103031.22
2023-02-04T14:36:45.313Z,103037.56
2023-02-04T14:39:12.893Z,103040.13
2023-02-04T14:41:40.477Z,103038.59
2023-02-04T14:44:08.079Z,103038.66
2023-02-04T14:46:37.790Z,103036.00
2023-02-04T14:49:07.918Z,103030.59
2023-02-04T14:51:35.775Z,103034.16
2023-02-04T14:54:03.371Z,103038.72
2023-02-04T14:56:30.983Z,103036.88
2023-02-04T14:58:58.795Z,103042.22
2023-02-04T15:01:27.424Z,103038.72
2023-02-04T15:03:55.180Z,103038.78
2023-02-04T15:06:24.677Z,103044.97
2023-02-04T15:08:52.871Z,103050.34
2023-02-04T15:11:20.514Z,103048.63
2023-02-04T15:13:48.524Z,103046.84
2023-02-04T15:16:16.467Z,103045.06
2023-02-04T15:18:45.867Z,103042.47
2023-02-04T15:21:14.810Z,103046.91
2023-02-04T15:23:47.212Z,103048.72
2023-02-04T15:26:15.546Z,103055.81
2023-02-04T15:28:43.265Z,103048.06
2023-02-04T15:31:12.212Z,103050.81
2023-02-04T15:33:39.997Z,103044.75
2023-02-04T15:36:08.275Z,103051.97
2023-02-04T15:38:36.477Z,103049.38
2023-02-04T15:41:06.057Z,103060.94
2023-02-04T15:43:34.189Z,103060.22
2023-02-04T15:46:01.793Z,103063.75
2023-02-04T15:48:30.766Z,103065.66
2023-02-04T15:50:58.891Z,103064.91
2023-02-04T15:53:27.307Z,103069.38
2023-02-04T15:55:56.782Z,103079.16
2023-02-04T15:58:25.804Z,103074.78
2023-02-04T16:00:54.354Z,103072.25
2023-02-04T16:03:21.908Z,103069.69
2023-02-04T16:05:55.292Z,103064.41
2023-02-04T16:08:23.354Z,103067.22
2023-02-04T16:10:51.326Z,103073.56
2023-02-04T16:13:45.516Z,103073.66
2023-02-04T16:16:13.842Z,103072.84
2023-02-04T16:18:46.794Z,103075.59
2023-02-04T16:21:14.443Z,103081.00
2023-02-04T16:23:43.544Z,103080.22
2023-02-04T16:26:11.343Z,103076.88
2023-02-04T16:28:38.963Z,103091.03
2023-02-04T16:31:10.043Z,103085.84
2023-02-04T16:33:37.894Z,103087.72
2023-02-04T16:36:08.139Z,103086.09
2023-02-04T16:38:38.803Z,103092.44
2023-02-04T16:41:06.988Z,103089.06
2023-02-04T16:43:35.421Z,103090.06
2023-02-04T16:46:03.392Z,103097.28
2023-02-04T16:48:37.179Z,103099.19
2023-02-04T16:51:05.266Z,103100.31
2023-02-04T16:53:33.364Z,103096.88
2023-02-04T16:56:02.497Z,103107.66
2023-02-04T16:58:30.237Z,103106.94
2023-02-04T17:00:59.720Z,103110.69
2023-02-04T17:03:31.770Z,103120.56
2023-02-04T17:06:02.141Z,103121.59
2023-02-04T17:08:30.465Z,103120.94
2023-02-04T17:11:16.335Z,103121.97
2023-02-04T17:13:44.451Z,103121.31
2023-02-04T17:16:12.109Z,103111.72
2023-02-04T17:18:40.512Z,103114.72
2023-02-04T17:21:09.861Z,103115.84
2023-02-04T17:23:39.442Z,103113.38
2023-02-04T17:26:07.105Z,103115.22
2023-02-04T17:28:34.738Z,103108.28
2023-02-04T17:31:02.512Z,103117.13
2023-02-04T17:33:30.168Z,103119.88
2023-02-04T17:35:58.328Z,103124.28
2023-02-04T17:38:28.207Z,103118.25
2023-02-04T17:40:56.787Z,103106.84
2023-02-04T17:43:25.957Z,103116.59
2023-02-04T17:45:53.840Z,103108.75
2023-02-04T17:48:21.471Z,103111.44
2023-02-04T17:50:49.584Z,103114.13
2023-02-04T17:53:17.313Z,103111.56
2023-02-04T17:55:47.040Z,103119.59
2023-02-04T17:58:17.784Z,103115.25
2023-02-04T18:00:48.853Z,103115.34
2023-02-04T18:03:22.794Z,103117.16
2023-02-04T18:05:53.637Z,103112.78
2023-02-04T18:08:24.451Z,103109.31
2023-02-04T18:10:55.572Z,103112.88
2023-02-04T18:13:25.529Z,103112.06
2023-02-04T18:15:56.126Z,103123.56
2023-02-04T18:18:26.151Z,103119.28
2023-02-04T18:21:04.067Z,103126.38
2023-02-04T18:23:33.855Z,103124.69
2023-02-04T18:26:12.480Z,103118.63
2023-02-04T18:28:44.858Z,103120.50
2023-02-04T18:31:29.823Z,103120.59
2023-02-04T18:33:59.617Z,103126.84
2023-02-04T18:36:27.302Z,103126.06
2023-02-04T18:38:56.388Z,103129.69
2023-02-04T18:41:33.809Z,103122.75
2023-02-04T18:44:17.706Z,103121.09
2023-02-04T18:46:48.117Z,103124.69
2023-02-04T18:49:27.789Z,103126.50
2023-02-04T18:51:57.706Z,103129.25
2023-02-04T18:54:36.072Z,103132.84
2023-02-04T18:57:28.918Z,103143.44
2023-02-04T19:00:19.541Z,103149.72
2023-02-04T19:02:49.953Z,103154.16
2023-02-04T19:05:27.263Z,103148.13
2023-02-04T19:08:17.640Z,103142.97
2023-02-04T19:10:45.304Z,103144.81
2023-02-04T19:13:19.469Z,103142.34
2023-02-04T19:15:56.790Z,103139.78
2023-02-04T19:18:28.014Z,103128.50
2023-02-04T19:20:56.069Z,103130.34
2023-02-04T19:23:25.386Z,103129.63
2023-02-04T19:25:54.109Z,103129.66
2023-02-04T19:28:33.825Z,103126.31
2023-02-04T19:31:03.034Z,103130.75
2023-02-04T19:33:35.684Z,103134.38
2023-02-04T19:36:22.746Z,103137.16
2023-02-04T19:38:56.303Z,103146.03
2023-02-04T19:41:29.830Z,103143.53
2023-02-04T19:44:25.853Z,103149.78
2023-02-04T19:46:54.197Z,103151.66
2023-02-04T19:49:25.232Z,103145.63
2023-02-04T19:51:55.773Z,103146.63
2023-02-04T19:54:35.345Z,103148.50
2023-02-04T19:57:03.566Z,103156.50
2023-02-04T19:59:37.157Z,103156.59
2023-02-04T20:02:29.206Z,103161.06
2023-02-04T20:04:56.992Z,103162.03
2023-02-04T20:07:26.473Z,103154.22
2023-02-04T20:09:58.797Z,103154.28
2023-02-04T20:12:29.472Z,103153.53
2023-02-04T20:14:58.662Z,103154.44
2023-02-04T20:17:46.475Z,103142.34
2023-02-04T20:20:21.871Z,103143.31
2023-02-04T20:22:51.634Z,103148.63
2023-02-04T20:25:41.458Z,103149.59
2023-02-04T20:28:37.722Z,103136.53
2023-02-04T20:31:19.354Z,103138.34
2023-02-04T20:33:49.790Z,103137.59
2023-02-04T20:36:45.950Z,103131.53
2023-02-04T20:39:39.900Z,103140.34
2023-02-04T20:42:35.604Z,103136.94
2023-02-04T20:45:13.338Z,103136.13
2023-02-04T20:47:42.362Z,103132.66
2023-02-04T20:50:39.779Z,103124.88
2023-02-04T20:53:21.950Z,103122.31
2023-02-04T20:55:52.515Z,103126.75
2023-02-04T20:58:22.578Z,103126.81
2023-02-04T21:00:53.836Z,103121.63
2023-02-04T21:03:34.745Z,103119.06
2023-02-04T21:06:03.715Z,103115.63
2023-02-04T21:08:38.100Z,103113.97
2023-02-04T21:11:06.800Z,103107.88
2023-02-04T21:13:35.090Z,103112.31
2023-02-04T21:16:03.487Z,103118.53
2023-02-04T21:18:34.725Z,103114.22
2023-02-04T21:21:03.317Z,103125.63
2023-02-04T21:23:31.697Z,103122.16
2023-02-04T21:25:59.869Z,103130.13
2023-02-04T21:28:30.459Z,103130.13
2023-02-04T21:30:59.967Z,103131.06
2023-02-04T21:33:28.247Z,103134.56
2023-02-04T21:35:57.197Z,103132.84
2023-02-04T21:38:24.803Z,103125.06
2023-02-04T21:40:52.441Z,103130.38
2023-02-04T21:43:20.074Z,103131.25
2023-02-04T21:45:47.645Z,103135.69
2023-02-04T21:48:15.663Z,103133.09
2023-02-04T21:50:43.305Z,103132.25
2023-02-04T21:53:12.508Z,103135.78
2023-02-04T21:55:40.357Z,103129.69
2023-02-04T21:58:08.894Z,103140.22
2023-02-04T22:00:36.591Z,103135.00
2023-02-04T22:03:04.297Z,103121.91
2023-02-04T22:05:33.211Z,103116.72
2023-02-04T22:08:01.110Z,103115.88
2023-02-04T22:10:31.840Z,103115.00
2023-02-04T22:13:17.124Z,103105.44
2023-02-04T22:15:48.866Z,103107.19
2023-02-04T22:18:16.556Z,103113.31
2023-02-04T22:20:44.188Z,103105.47
2023-02-04T22:23:11.830Z,103099.38
2023-02-04T22:25:40.834Z,103099.38
2023-02-04T22:28:09.342Z,103100.22
2023-02-04T22:30:37.751Z,103104.56
2023-02-04T22:33:05.447Z,103111.56
2023-02-04T22:35:35.427Z,103113.31
2023-02-04T22:38:03.425Z,103109.78
2023-02-04T22:40:31.089Z,103105.44
2023-02-04T22:43:00.867Z,103093.13
2023-02-04T22:45:29.257Z,103096.63
2023-02-04T22:47:56.892Z,103102.72
2023-02-04T22:50:24.496Z,103104.44
2023-02-04T22:52:52.026Z,103112.31
2023-02-04T22:55:20.115Z,103103.56
2023-02-04T22:57:47.723Z,103110.50
2023-02-04T23:00:18.164Z,103111.34
2023-02-04T23:02:45.904Z,103115.72
2023-02-04T23:05:15.207Z,103117.44
2023-02-04T23:07:42.806Z,103119.16
2023-02-04T23:10:10.894Z,103118.28
2023-02-04T23:12:38.526Z,103110.38
2023-02-04T23:15:06.691Z,103115.59
2023-02-04T23:17:36.741Z,103113.78
2023-02-04T23:20:06.857Z,103109.41
2023-02-04T23:22:37.233Z,103105.00
2023-02-04T23:25:06.628Z,103103.22
2023-02-04T23:27:37.441Z,103098.78
2023-02-04T23:30:06.857Z,103093.53
2023-02-04T23:32:36.543Z,103095.25
2023-02-04T23:35:04.170Z,103085.56
2023-02-04T23:37:32.368Z,103082.06
2023-02-04T23:40:00.310Z,103090.78
2023-02-04T23:42:27.982Z,103084.63
2023-02-04T23:44:55.850Z,103091.59
2023-02-04T23:47:23.573Z,103083.69
2023-02-04T23:49:52.853Z,103085.41
2023-02-04T23:52:20.506Z,103082.75
2023-02-04T23:54:48.242Z,103075.72
2023-02-04T23:57:16.874Z,103087.91
2023-02-04T23:59:45.305Z,103090.53
